createdAt,value
2018-05-06T00:00:11.125Z,10.43
2018-05-06T00:01:19.775Z,10.46
2018-05-06T00:02:28.411Z,10.38
2018-05-06T00:03:37.058Z,10.38
2018-05-06T00:04:45.698Z,10.34
2018-05-06T00:05:54.608Z,10.3
2018-05-06T00:07:03.241Z,10.33
2018-05-06T00:08:11.886Z,10.27
2018-05-06T00:09:20.528Z,10.23
2018-05-06T00:10:29.179Z,10.17
2018-05-06T00:11:37.817Z,10.23
2018-05-06T00:12:46.457Z,10.2
2018-05-06T00:13:55.098Z,10.2
2018-05-06T00:15:03.746Z,10.24
2018-05-06T00:16:12.399Z,10.23
2018-05-06T00:17:21.035Z,10.2
2018-05-06T00:18:29.684Z,10.17
2018-05-06T00:19:38.318Z,10.07
2018-05-06T00:20:46.970Z,10.13
2018-05-06T00:21:55.608Z,10.1
2018-05-06T00:23:04.254Z,10.1
2018-05-06T00:24:12.888Z,10.09
2018-05-06T00:25:21.810Z,9.99
2018-05-06T00:26:30.447Z,9.95
2018-05-06T00:27:39.097Z,10.03
2018-05-06T00:28:47.736Z,9.94
2018-05-06T00:29:56.381Z,9.99
2018-05-06T00:31:05.555Z,10.07
2018-05-06T00:32:14.200Z,9.9
2018-05-06T00:33:22.842Z,9.95
2018-05-06T00:34:31.478Z,10.02
2018-05-06T00:35:40.122Z,9.95
2018-05-06T00:36:48.765Z,10.05
2018-05-06T00:37:57.415Z,9.92
2018-05-06T00:39:06.058Z,9.94
2018-05-06T00:40:14.701Z,9.95
2018-05-06T00:41:23.606Z,9.9
2018-05-06T00:42:32.253Z,9.87
2018-05-06T00:43:40.891Z,9.88
2018-05-06T00:44:49.795Z,9.84
2018-05-06T00:45:58.435Z,9.84
2018-05-06T00:47:07.090Z,9.8
2018-05-06T00:48:15.994Z,9.8
2018-05-06T00:49:24.636Z,9.77
2018-05-06T00:50:33.276Z,9.8
2018-05-06T00:51:42.181Z,9.77
2018-05-06T00:52:50.827Z,9.73
2018-05-06T00:53:59.472Z,9.64
2018-05-06T00:55:08.113Z,9.66
2018-05-06T00:56:17.011Z,9.69
2018-05-06T00:57:25.715Z,9.59
2018-05-06T00:58:34.301Z,9.62
2018-05-06T00:59:42.943Z,9.63
2018-05-06T01:00:51.580Z,9.66
2018-05-06T01:02:00.220Z,9.66
2018-05-06T01:03:08.861Z,9.66
2018-05-06T01:04:17.504Z,9.62
2018-05-06T01:05:26.139Z,9.62
2018-05-06T01:06:34.782Z,9.55
2018-05-06T01:07:43.423Z,9.55
2018-05-06T01:08:52.070Z,9.55
2018-05-06T01:10:00.716Z,9.52
2018-05-06T01:11:09.613Z,9.49
2018-05-06T01:12:18.253Z,9.54
2018-05-06T01:13:26.896Z,9.42
2018-05-06T01:14:35.544Z,9.52
2018-05-06T01:15:44.182Z,9.4
2018-05-06T01:16:52.830Z,9.4
2018-05-06T01:18:01.472Z,9.4
2018-05-06T01:19:10.117Z,9.42
2018-05-06T01:20:18.753Z,9.36
2018-05-06T01:21:27.403Z,9.33
2018-05-06T01:22:36.043Z,9.3
2018-05-06T01:23:44.954Z,9.34
2018-05-06T01:24:53.590Z,9.37
2018-05-06T01:26:02.225Z,9.3
2018-05-06T01:27:10.864Z,9.33
2018-05-06T01:28:19.512Z,9.31
2018-05-06T01:29:28.424Z,9.27
2018-05-06T01:30:37.062Z,9.18
2018-05-06T01:31:45.707Z,9.3
2018-05-06T01:32:54.340Z,9.26
2018-05-06T01:34:03.266Z,9.16
2018-05-06T01:35:11.905Z,9.15
2018-05-06T01:36:20.813Z,9.26
2018-05-06T01:37:29.453Z,9.21
2018-05-06T01:38:38.103Z,9.26
2018-05-06T01:39:46.742Z,9.16
2018-05-06T01:40:55.389Z,9.15
2018-05-06T01:42:04.022Z,9.21
2018-05-06T01:43:12.666Z,9.13
2018-05-06T01:44:21.311Z,9.11
2018-05-06T01:45:29.956Z,9.13
2018-05-06T01:46:38.860Z,9.09
2018-05-06T01:47:47.491Z,9.03
2018-05-06T01:48:56.136Z,9.08
2018-05-06T01:50:04.774Z,9.02
2018-05-06T01:51:13.429Z,9.08
2018-05-06T01:52:22.058Z,9.03
2018-05-06T01:53:30.704Z,9.03
2018-05-06T01:54:39.339Z,9.08
2018-05-06T01:55:47.989Z,9.05
2018-05-06T01:56:56.651Z,9.02
2018-05-06T01:58:05.265Z,8.99
2018-05-06T01:59:13.904Z,8.96
2018-05-06T02:00:22.556Z,8.97
2018-05-06T02:01:31.196Z,8.92
2018-05-06T02:02:39.833Z,8.92
2018-05-06T02:03:48.473Z,8.95
2018-05-06T02:04:57.378Z,8.95
2018-05-06T02:06:06.029Z,8.92
2018-05-06T02:07:14.664Z,8.92
2018-05-06T02:08:23.313Z,8.93
2018-05-06T02:09:31.944Z,8.92
2018-05-06T02:10:40.594Z,8.93
2018-05-06T02:11:49.235Z,8.87
2018-05-06T02:12:57.880Z,8.9
2018-05-06T02:14:06.510Z,8.87
2018-05-06T02:15:15.161Z,8.86
2018-05-06T02:16:23.799Z,8.87
2018-05-06T02:17:32.443Z,8.86
2018-05-06T02:18:41.075Z,8.92
2018-05-06T02:19:49.718Z,8.93
2018-05-06T02:20:58.362Z,8.79
2018-05-06T02:22:07.006Z,8.89
2018-05-06T02:23:15.648Z,8.78
2018-05-06T02:24:24.285Z,8.84
2018-05-06T02:25:32.927Z,8.74
2018-05-06T02:26:41.574Z,8.72
2018-05-06T02:27:50.220Z,8.79
2018-05-06T02:28:58.859Z,8.68
2018-05-06T02:30:07.501Z,8.74
2018-05-06T02:31:16.144Z,8.75
2018-05-06T02:32:25.056Z,8.72
2018-05-06T02:33:33.695Z,8.75
2018-05-06T02:34:42.340Z,8.75
2018-05-06T02:35:50.993Z,8.72
2018-05-06T02:36:59.644Z,8.71
2018-05-06T02:38:08.290Z,8.72
2018-05-06T02:39:17.210Z,8.75
2018-05-06T02:40:26.112Z,8.6
2018-05-06T02:41:34.761Z,8.61
2018-05-06T02:42:43.406Z,8.66
2018-05-06T02:43:52.054Z,8.59
2018-05-06T02:45:01.240Z,8.61
2018-05-06T02:46:09.878Z,8.57
2018-05-06T02:47:18.785Z,8.61
2018-05-06T02:48:27.430Z,8.6
2018-05-06T02:49:36.342Z,8.56
2018-05-06T02:50:44.987Z,8.59
2018-05-06T02:51:53.899Z,8.56
2018-05-06T02:53:02.801Z,8.49
2018-05-06T02:54:11.705Z,8.49
2018-05-06T02:55:20.342Z,8.45
2018-05-06T02:56:28.993Z,8.49
2018-05-06T02:57:37.895Z,8.44
2018-05-06T02:58:46.539Z,8.45
2018-05-06T02:59:55.187Z,8.45
2018-05-06T03:01:03.818Z,8.42
2018-05-06T03:02:12.463Z,8.44
2018-05-06T03:03:21.100Z,8.36
2018-05-06T03:04:29.744Z,8.38
2018-05-06T03:05:38.382Z,8.46
2018-05-06T03:06:47.025Z,8.41
2018-05-06T03:07:55.933Z,8.42
2018-05-06T03:09:04.579Z,8.28
2018-05-06T03:10:13.212Z,8.34
2018-05-06T03:11:21.853Z,8.34
2018-05-06T03:12:30.489Z,8.31
2018-05-06T03:13:39.134Z,8.28
2018-05-06T03:14:48.298Z,8.26
2018-05-06T03:15:56.939Z,8.16
2018-05-06T03:17:05.577Z,8.26
2018-05-06T03:18:14.217Z,8.24
2018-05-06T03:19:22.866Z,8.11
2018-05-06T03:20:31.504Z,8.16
2018-05-06T03:21:40.145Z,8.17
2018-05-06T03:22:48.790Z,8.18
2018-05-06T03:23:57.426Z,8.13
2018-05-06T03:25:06.069Z,8.2
2018-05-06T03:26:14.706Z,8.16
2018-05-06T03:27:23.350Z,8.21
2018-05-06T03:28:31.987Z,8.17
2018-05-06T03:29:40.633Z,8.13
2018-05-06T03:30:49.528Z,8.16
2018-05-06T03:31:58.173Z,8.23
2018-05-06T03:33:06.810Z,8.21
2018-05-06T03:34:15.451Z,8.05
2018-05-06T03:35:24.088Z,8.2
2018-05-06T03:36:32.991Z,8.18
2018-05-06T03:37:41.636Z,8.16
2018-05-06T03:38:50.277Z,8.18
2018-05-06T03:39:58.917Z,8.14
2018-05-06T03:41:07.552Z,8.2
2018-05-06T03:42:16.202Z,8.13
2018-05-06T03:43:25.100Z,8.16
2018-05-06T03:44:33.742Z,8.16
2018-05-06T03:45:42.382Z,8.17
2018-05-06T03:46:51.027Z,8.16
2018-05-06T03:47:59.663Z,8.13
2018-05-06T03:49:08.308Z,8.18
2018-05-06T03:50:16.941Z,8.17
2018-05-06T03:51:25.585Z,8.18
2018-05-06T03:52:34.223Z,8.21
2018-05-06T03:53:42.870Z,8.32
2018-05-06T03:54:51.508Z,8.26
2018-05-06T03:56:00.143Z,8.26
2018-05-06T03:57:08.783Z,8.34
2018-05-06T03:58:17.687Z,8.32
2018-05-06T03:59:26.332Z,8.28
2018-05-06T04:00:34.966Z,8.36
2018-05-06T04:01:43.605Z,8.34
2018-05-06T04:02:52.245Z,8.39
2018-05-06T04:04:01.153Z,8.39
2018-05-06T04:05:09.790Z,8.41
2018-05-06T04:06:18.691Z,8.32
2018-05-06T04:07:27.328Z,8.42
2018-05-06T04:08:36.241Z,8.45
2018-05-06T04:09:44.879Z,8.54
2018-05-06T04:10:53.522Z,8.5
2018-05-06T04:12:02.167Z,8.53
2018-05-06T04:13:11.071Z,8.64
2018-05-06T04:14:19.985Z,8.59
2018-05-06T04:15:28.629Z,8.6
2018-05-06T04:16:37.268Z,8.63
2018-05-06T04:17:45.905Z,8.61
2018-05-06T04:18:54.550Z,8.71
2018-05-06T04:20:03.185Z,8.66
2018-05-06T04:21:12.161Z,8.66
2018-05-06T04:22:21.057Z,8.61
2018-05-06T04:23:29.707Z,8.77
2018-05-06T04:24:38.348Z,8.71
2018-05-06T04:25:46.989Z,8.78
2018-05-06T04:26:55.729Z,8.77
2018-05-06T04:28:04.264Z,8.79
2018-05-06T04:29:12.913Z,8.77
2018-05-06T04:30:21.821Z,8.87
2018-05-06T04:31:30.466Z,8.92
2018-05-06T04:32:39.097Z,9.02
2018-05-06T04:33:47.741Z,8.95
2018-05-06T04:34:56.644Z,8.99
2018-05-06T04:36:05.292Z,9.02
2018-05-06T04:37:13.925Z,9.09
2018-05-06T04:38:22.569Z,9.12
2018-05-06T04:39:31.205Z,9.21
2018-05-06T04:40:39.854Z,9.26
2018-05-06T04:41:48.491Z,9.18
2018-05-06T04:42:57.140Z,9.3
2018-05-06T04:44:05.779Z,9.3
2018-05-06T04:45:14.428Z,9.4
2018-05-06T04:46:23.342Z,9.47
2018-05-06T04:47:31.980Z,9.48
2018-05-06T04:48:40.620Z,9.49
2018-05-06T04:49:49.257Z,9.51
2018-05-06T04:50:57.907Z,9.55
2018-05-06T04:52:06.549Z,9.49
2018-05-06T04:53:15.191Z,9.55
2018-05-06T04:54:23.825Z,9.51
2018-05-06T04:55:32.470Z,9.56
2018-05-06T04:56:41.106Z,9.63
2018-05-06T04:57:49.753Z,9.62
2018-05-06T04:58:58.384Z,9.64
2018-05-06T05:00:07.038Z,9.66
2018-05-06T05:01:15.676Z,9.64
2018-05-06T05:02:24.322Z,9.72
2018-05-06T05:03:32.954Z,9.82
2018-05-06T05:04:41.597Z,9.87
2018-05-06T05:05:50.243Z,9.85
2018-05-06T05:06:58.889Z,10
2018-05-06T05:08:07.796Z,9.97
2018-05-06T05:09:16.694Z,9.97
2018-05-06T05:10:25.337Z,10.03
2018-05-06T05:11:33.974Z,10.24
2018-05-06T05:12:42.623Z,10.2
2018-05-06T05:13:51.254Z,10.34
2018-05-06T05:15:00.171Z,10.36
2018-05-06T05:16:09.079Z,10.34
2018-05-06T05:17:18.250Z,10.42
2018-05-06T05:18:26.888Z,10.41
2018-05-06T05:19:35.533Z,10.48
2018-05-06T05:20:44.174Z,10.64
2018-05-06T05:21:53.119Z,10.62
2018-05-06T05:23:01.761Z,10.72
2018-05-06T05:24:10.407Z,10.77
2018-05-06T05:25:19.044Z,10.87
2018-05-06T05:26:27.699Z,10.84
2018-05-06T05:27:36.331Z,10.87
2018-05-06T05:28:44.973Z,10.98
2018-05-06T05:29:53.615Z,11.02
2018-05-06T05:31:02.251Z,11.07
2018-05-06T05:32:10.897Z,11.15
2018-05-06T05:33:19.539Z,11.18
2018-05-06T05:34:28.585Z,11.23
2018-05-06T05:35:37.135Z,11.22
2018-05-06T05:36:45.787Z,11.34
2018-05-06T05:37:54.681Z,11.3
2018-05-06T05:39:03.325Z,11.33
2018-05-06T05:40:11.963Z,11.41
2018-05-06T05:41:20.609Z,11.44
2018-05-06T05:42:29.517Z,11.49
2018-05-06T05:43:38.436Z,11.52
2018-05-06T05:44:47.102Z,11.56
2018-05-06T05:45:56.001Z,11.55
2018-05-06T05:47:04.645Z,11.63
2018-05-06T05:48:13.287Z,11.65
2018-05-06T05:49:21.933Z,11.77
2018-05-06T05:50:30.571Z,11.81
2018-05-06T05:51:39.475Z,12.07
2018-05-06T05:52:48.119Z,12.03
2018-05-06T05:53:56.767Z,12.08
2018-05-06T05:55:05.406Z,12.08
2018-05-06T05:56:14.052Z,12.15
2018-05-06T05:57:22.696Z,12.26
2018-05-06T05:58:31.344Z,12.14
2018-05-06T05:59:39.986Z,12.17
2018-05-06T06:00:48.905Z,12.37
2018-05-06T06:01:57.542Z,12.39
2018-05-06T06:03:06.182Z,12.47
2018-05-06T06:04:14.830Z,12.37
2018-05-06T06:05:23.737Z,12.53
2018-05-06T06:06:32.379Z,12.43
2018-05-06T06:07:41.017Z,12.53
2018-05-06T06:08:49.668Z,12.58
2018-05-06T06:09:58.310Z,12.58
2018-05-06T06:11:07.219Z,12.57
2018-05-06T06:12:15.856Z,12.63
2018-05-06T06:13:24.505Z,12.69
2018-05-06T06:14:33.151Z,12.83
2018-05-06T06:15:41.799Z,12.99
2018-05-06T06:16:50.437Z,13.16
2018-05-06T06:17:59.086Z,13.24
2018-05-06T06:19:08.013Z,13.31
2018-05-06T06:20:16.659Z,13.31
2018-05-06T06:21:25.305Z,13.4
2018-05-06T06:22:33.941Z,13.46
2018-05-06T06:23:42.590Z,13.47
2018-05-06T06:24:51.229Z,13.55
2018-05-06T06:25:59.884Z,13.54
2018-05-06T06:27:08.783Z,13.57
2018-05-06T06:28:17.431Z,13.61
2018-05-06T06:29:26.071Z,13.58
2018-05-06T06:30:34.724Z,13.58
2018-05-06T06:31:43.362Z,13.58
2018-05-06T06:32:52.088Z,13.7
2018-05-06T06:34:00.649Z,13.65
2018-05-06T06:35:09.305Z,13.67
2018-05-06T06:36:18.212Z,13.8
2018-05-06T06:37:26.856Z,13.85
2018-05-06T06:38:35.761Z,13.89
2018-05-06T06:39:44.401Z,13.98
2018-05-06T06:40:53.367Z,13.98
2018-05-06T06:42:01.973Z,14.04
2018-05-06T06:43:10.887Z,14.07
2018-05-06T06:44:19.523Z,14.13
2018-05-06T06:45:28.171Z,14.2
2018-05-06T06:46:36.811Z,14.18
2018-05-06T06:47:45.725Z,14.3
2018-05-06T06:48:54.360Z,14.45
2018-05-06T06:50:03.015Z,14.48
2018-05-06T06:51:11.656Z,14.45
2018-05-06T06:52:20.303Z,14.53
2018-05-06T06:53:28.941Z,14.48
2018-05-06T06:54:37.847Z,14.61
2018-05-06T06:55:46.580Z,14.61
2018-05-06T06:56:55.145Z,14.59
2018-05-06T06:58:03.792Z,14.63
2018-05-06T06:59:12.429Z,14.73
2018-05-06T07:00:21.347Z,14.71
2018-05-06T07:01:29.989Z,14.9
2018-05-06T07:02:38.647Z,14.89
2018-05-06T07:03:47.280Z,14.89
2018-05-06T07:04:55.930Z,14.99
2018-05-06T07:06:05.136Z,15.04
2018-05-06T07:07:14.053Z,15.04
2018-05-06T07:08:22.686Z,15.08
2018-05-06T07:09:31.334Z,15.15
2018-05-06T07:10:40.250Z,15.12
2018-05-06T07:11:48.905Z,15.23
2018-05-06T07:12:57.547Z,15.18
2018-05-06T07:14:06.188Z,15.32
2018-05-06T07:15:14.837Z,15.27
2018-05-06T07:16:23.486Z,15.29
2018-05-06T07:17:32.384Z,15.29
2018-05-06T07:18:41.034Z,15.32
2018-05-06T07:19:49.676Z,15.35
2018-05-06T07:20:58.333Z,15.36
2018-05-06T07:22:06.971Z,15.33
2018-05-06T07:23:15.618Z,15.47
2018-05-06T07:24:24.528Z,15.51
2018-05-06T07:25:33.447Z,15.57
2018-05-06T07:26:42.088Z,15.59
2018-05-06T07:27:51.008Z,15.63
2018-05-06T07:28:59.650Z,15.62
2018-05-06T07:30:08.308Z,15.75
2018-05-06T07:31:16.949Z,15.85
2018-05-06T07:32:25.591Z,15.87
2018-05-06T07:33:34.234Z,15.92
2018-05-06T07:34:42.882Z,15.99
2018-05-06T07:35:51.838Z,15.99
2018-05-06T07:37:00.445Z,16.09
2018-05-06T07:38:09.373Z,16.08
2018-05-06T07:39:17.996Z,16.22
2018-05-06T07:40:26.652Z,16.29
2018-05-06T07:41:35.376Z,16.34
2018-05-06T07:42:43.938Z,16.36
2018-05-06T07:43:52.575Z,16.32
2018-05-06T07:45:01.236Z,16.31
2018-05-06T07:46:09.873Z,16.4
2018-05-06T07:47:18.521Z,16.44
2018-05-06T07:48:27.160Z,16.41
2018-05-06T07:49:36.074Z,16.5
2018-05-06T07:50:44.730Z,16.5
2018-05-06T07:51:53.387Z,16.59
2018-05-06T07:53:02.026Z,16.58
2018-05-06T07:54:10.666Z,16.74
2018-05-06T07:55:19.316Z,16.69
2018-05-06T07:56:27.960Z,16.86
2018-05-06T07:57:36.877Z,16.89
2018-05-06T07:58:45.533Z,16.92
2018-05-06T07:59:54.166Z,17.02
2018-05-06T08:01:02.807Z,17.04
2018-05-06T08:02:11.459Z,17.1
2018-05-06T08:03:20.096Z,17.2
2018-05-06T08:04:28.743Z,17.23
2018-05-06T08:05:37.388Z,17.14
2018-05-06T08:06:46.046Z,17.24
2018-05-06T08:07:54.690Z,17.3
2018-05-06T08:09:03.333Z,17.38
2018-05-06T08:10:11.977Z,17.34
2018-05-06T08:11:20.622Z,17.49
2018-05-06T08:12:29.278Z,17.5
2018-05-06T08:13:37.921Z,17.6
2018-05-06T08:14:46.569Z,17.44
2018-05-06T08:15:55.209Z,17.56
2018-05-06T08:17:03.861Z,17.57
2018-05-06T08:18:12.513Z,17.68
2018-05-06T08:19:21.156Z,17.72
2018-05-06T08:20:29.800Z,17.73
2018-05-06T08:21:38.710Z,17.86
2018-05-06T08:22:47.353Z,17.8
2018-05-06T08:23:56.003Z,17.91
2018-05-06T08:25:04.645Z,17.86
2018-05-06T08:26:13.293Z,17.95
2018-05-06T08:27:21.942Z,17.98
2018-05-06T08:28:30.591Z,17.9
2018-05-06T08:29:39.247Z,17.91
2018-05-06T08:30:47.883Z,17.95
2018-05-06T08:31:56.530Z,18.05
2018-05-06T08:33:05.176Z,18.09
2018-05-06T08:34:13.827Z,18.16
2018-05-06T08:35:22.470Z,18.15
2018-05-06T08:36:31.120Z,18.27
2018-05-06T08:37:39.770Z,18.28
2018-05-06T08:38:48.418Z,18.43
2018-05-06T08:39:57.063Z,18.46
2018-05-06T08:41:05.718Z,18.45
2018-05-06T08:42:14.362Z,18.51
2018-05-06T08:43:23.014Z,18.53
2018-05-06T08:44:31.659Z,18.51
2018-05-06T08:45:40.345Z,18.6
2018-05-06T08:46:49.255Z,18.64
2018-05-06T08:47:57.900Z,18.52
2018-05-06T08:49:06.553Z,18.57
2018-05-06T08:50:15.200Z,18.63
2018-05-06T08:51:23.925Z,18.73
2018-05-06T08:52:32.487Z,18.74
2018-05-06T08:53:41.409Z,18.73
2018-05-06T08:54:50.061Z,18.78
2018-05-06T08:55:58.708Z,18.82
2018-05-06T08:57:07.351Z,18.85
2018-05-06T08:58:16.003Z,19
2018-05-06T08:59:24.650Z,18.98
2018-05-06T09:00:33.300Z,19.01
2018-05-06T09:01:41.945Z,19.15
2018-05-06T09:02:50.594Z,19.2
2018-05-06T09:03:59.243Z,19.23
2018-05-06T09:05:07.896Z,19.19
2018-05-06T09:06:16.554Z,19.16
2018-05-06T09:07:25.200Z,19.23
2018-05-06T09:08:33.852Z,19.32
2018-05-06T09:09:42.498Z,19.37
2018-05-06T09:10:51.151Z,19.38
2018-05-06T09:11:59.800Z,19.48
2018-05-06T09:13:08.463Z,19.37
2018-05-06T09:14:17.106Z,19.45
2018-05-06T09:15:26.035Z,19.6
2018-05-06T09:16:34.935Z,19.6
2018-05-06T09:17:43.589Z,19.6
2018-05-06T09:18:52.235Z,19.72
2018-05-06T09:20:01.160Z,19.72
2018-05-06T09:21:09.806Z,19.75
2018-05-06T09:22:18.450Z,19.75
2018-05-06T09:23:27.097Z,19.84
2018-05-06T09:24:36.004Z,19.85
2018-05-06T09:25:44.765Z,19.92
2018-05-06T09:26:53.305Z,19.96
2018-05-06T09:28:01.965Z,20.1
2018-05-06T09:29:10.603Z,20.03
2018-05-06T09:30:19.266Z,20.15
2018-05-06T09:31:27.912Z,20.21
2018-05-06T09:32:36.567Z,20.14
2018-05-06T09:33:45.205Z,20.27
2018-05-06T09:34:53.862Z,20.19
2018-05-06T09:36:02.508Z,20.3
2018-05-06T09:37:11.160Z,20.29
2018-05-06T09:38:19.799Z,20.4
2018-05-06T09:39:28.712Z,20.34
2018-05-06T09:40:37.376Z,20.36
2018-05-06T09:41:46.554Z,20.44
2018-05-06T09:42:55.210Z,20.46
2018-05-06T09:44:03.847Z,20.48
2018-05-06T09:45:12.506Z,20.42
2018-05-06T09:46:21.145Z,20.5
2018-05-06T09:47:29.883Z,20.59
2018-05-06T09:48:38.444Z,20.63
2018-05-06T09:49:47.096Z,20.63
2018-05-06T09:50:55.744Z,20.68
2018-05-06T09:52:04.402Z,20.75
2018-05-06T09:53:13.042Z,20.75
2018-05-06T09:54:21.692Z,20.83
2018-05-06T09:55:30.340Z,20.9
2018-05-06T09:56:38.997Z,20.89
2018-05-06T09:57:47.988Z,20.86
2018-05-06T09:58:56.632Z,20.96
2018-05-06T10:00:05.280Z,21.04
2018-05-06T10:01:13.927Z,21.05
2018-05-06T10:02:22.586Z,21.13
2018-05-06T10:03:31.234Z,21.17
2018-05-06T10:04:39.888Z,21.29
2018-05-06T10:05:48.527Z,21.37
2018-05-06T10:06:57.191Z,21.41
2018-05-06T10:08:05.843Z,21.33
2018-05-06T10:09:14.491Z,21.47
2018-05-06T10:10:23.141Z,21.5
2018-05-06T10:11:31.792Z,21.37
2018-05-06T10:12:40.455Z,21.44
2018-05-06T10:13:49.370Z,21.47
2018-05-06T10:14:58.017Z,21.58
2018-05-06T10:16:06.677Z,21.5
2018-05-06T10:17:15.332Z,21.56
2018-05-06T10:18:24.247Z,21.63
2018-05-06T10:19:32.900Z,21.68
2018-05-06T10:20:41.547Z,21.7
2018-05-06T10:21:50.201Z,21.78
2018-05-06T10:22:59.118Z,21.88
2018-05-06T10:24:07.807Z,21.94
2018-05-06T10:25:16.683Z,21.81
2018-05-06T10:26:25.334Z,21.84
2018-05-06T10:27:33.985Z,22.01
2018-05-06T10:28:42.640Z,22.01
2018-05-06T10:29:51.286Z,22.15
2018-05-06T10:30:59.941Z,22.16
2018-05-06T10:32:08.589Z,22.15
2018-05-06T10:33:17.241Z,22.21
2018-05-06T10:34:25.890Z,22.23
2018-05-06T10:35:34.543Z,22.19
2018-05-06T10:36:43.455Z,22.23
2018-05-06T10:37:52.106Z,22.21
2018-05-06T10:39:01.031Z,22.22
2018-05-06T10:40:09.683Z,22.16
2018-05-06T10:41:18.598Z,22.22
2018-05-06T10:42:27.265Z,22.21
2018-05-06T10:43:35.901Z,22.23
2018-05-06T10:44:44.552Z,22.36
2018-05-06T10:45:53.205Z,22.34
2018-05-06T10:47:01.870Z,22.36
2018-05-06T10:48:10.506Z,22.4
2018-05-06T10:49:19.272Z,22.4
2018-05-06T10:50:27.816Z,22.44
2018-05-06T10:51:36.458Z,22.53
2018-05-06T10:52:45.114Z,22.59
2018-05-06T10:53:54.293Z,22.56
2018-05-06T10:55:02.945Z,22.7
2018-05-06T10:56:11.607Z,22.61
2018-05-06T10:57:20.520Z,22.65
2018-05-06T10:58:29.171Z,22.74
2018-05-06T10:59:37.819Z,22.8
2018-05-06T11:00:46.477Z,22.81
2018-05-06T11:01:55.125Z,22.89
2018-05-06T11:03:03.774Z,22.91
2018-05-06T11:04:12.428Z,22.91
2018-05-06T11:05:21.084Z,23.01
2018-05-06T11:06:29.732Z,22.99
2018-05-06T11:07:38.386Z,23.01
2018-05-06T11:08:47.038Z,23.07
2018-05-06T11:09:55.684Z,23.04
2018-05-06T11:11:04.337Z,23.14
2018-05-06T11:12:12.989Z,23.2
2018-05-06T11:13:21.642Z,23.18
2018-05-06T11:14:30.566Z,23.26
2018-05-06T11:15:39.249Z,23.37
2018-05-06T11:16:47.862Z,23.28
2018-05-06T11:17:56.513Z,23.26
2018-05-06T11:19:05.169Z,23.29
2018-05-06T11:20:13.816Z,23.39
2018-05-06T11:21:22.467Z,23.29
2018-05-06T11:22:31.120Z,23.26
2018-05-06T11:23:39.776Z,23.37
2018-05-06T11:24:48.423Z,23.42
2018-05-06T11:25:57.340Z,23.51
2018-05-06T11:27:06.257Z,23.59
2018-05-06T11:28:14.917Z,23.51
2018-05-06T11:29:23.566Z,23.58
2018-05-06T11:30:32.483Z,23.73
2018-05-06T11:31:41.142Z,23.79
2018-05-06T11:32:50.054Z,23.77
2018-05-06T11:33:58.709Z,23.84
2018-05-06T11:35:07.632Z,23.86
2018-05-06T11:36:16.283Z,23.84
2018-05-06T11:37:25.196Z,23.94
2018-05-06T11:38:33.852Z,23.88
2018-05-06T11:39:42.504Z,23.86
2018-05-06T11:40:51.430Z,23.88
2018-05-06T11:42:00.069Z,23.92
2018-05-06T11:43:08.725Z,23.85
2018-05-06T11:44:17.374Z,23.86
2018-05-06T11:45:26.033Z,23.76
2018-05-06T11:46:34.945Z,23.86
2018-05-06T11:47:43.596Z,23.84
2018-05-06T11:48:52.251Z,23.76
2018-05-06T11:50:00.904Z,23.76
2018-05-06T11:51:09.563Z,23.73
2018-05-06T11:52:18.474Z,23.74
2018-05-06T11:53:27.140Z,23.79
2018-05-06T11:54:35.785Z,23.82
2018-05-06T11:55:44.433Z,23.81
2018-05-06T11:56:53.080Z,23.85
2018-05-06T11:58:01.732Z,23.88
2018-05-06T11:59:10.382Z,23.99
2018-05-06T12:00:19.040Z,24.07
2018-05-06T12:01:27.951Z,24.04
2018-05-06T12:02:36.609Z,24.04
2018-05-06T12:03:45.257Z,24.06
2018-05-06T12:04:53.914Z,24.06
2018-05-06T12:06:02.563Z,24.1
2018-05-06T12:07:11.216Z,24.09
2018-05-06T12:08:19.863Z,24.13
2018-05-06T12:09:28.514Z,24.07
2018-05-06T12:10:37.175Z,24.11
2018-05-06T12:11:45.824Z,24.11
2018-05-06T12:12:54.745Z,24.14
2018-05-06T12:14:03.918Z,24.19
2018-05-06T12:15:12.580Z,24.13
2018-05-06T12:16:21.227Z,24.1
2018-05-06T12:17:29.888Z,24.11
2018-05-06T12:18:38.808Z,24.21
2018-05-06T12:19:47.470Z,24.24
2018-05-06T12:20:56.121Z,24.28
2018-05-06T12:22:05.042Z,24.36
2018-05-06T12:23:13.684Z,24.34
2018-05-06T12:24:22.340Z,24.32
2018-05-06T12:25:30.998Z,24.34
2018-05-06T12:26:39.915Z,24.4
2018-05-06T12:27:48.832Z,24.29
2018-05-06T12:28:57.478Z,24.36
2018-05-06T12:30:06.135Z,24.36
2018-05-06T12:31:14.781Z,24.37
2018-05-06T12:32:23.710Z,24.5
2018-05-06T12:33:32.415Z,24.48
2018-05-06T12:34:41.297Z,24.55
2018-05-06T12:35:49.943Z,24.63
2018-05-06T12:36:58.870Z,24.62
2018-05-06T12:38:07.517Z,24.66
2018-05-06T12:39:16.171Z,24.61
2018-05-06T12:40:24.822Z,24.62
2018-05-06T12:41:33.487Z,24.55
2018-05-06T12:42:42.136Z,24.59
2018-05-06T12:43:50.792Z,24.53
2018-05-06T12:44:59.712Z,24.61
2018-05-06T12:46:08.625Z,24.59
2018-05-06T12:47:17.556Z,24.66
2018-05-06T12:48:26.203Z,24.65
2018-05-06T12:49:34.938Z,24.63
2018-05-06T12:50:43.506Z,24.63
2018-05-06T12:51:52.169Z,24.61
2018-05-06T12:53:00.817Z,24.62
2018-05-06T12:54:09.476Z,24.63
2018-05-06T12:55:18.183Z,24.65
2018-05-06T12:56:26.783Z,24.65
2018-05-06T12:57:35.433Z,24.58
2018-05-06T12:58:44.088Z,24.53
2018-05-06T12:59:52.732Z,24.51
2018-05-06T13:01:01.386Z,24.53
2018-05-06T13:02:10.045Z,24.53
2018-05-06T13:03:18.964Z,24.63
2018-05-06T13:04:27.616Z,24.69
2018-05-06T13:05:36.260Z,24.81
2018-05-06T13:06:44.920Z,24.84
2018-05-06T13:07:53.567Z,24.85
2018-05-06T13:09:02.216Z,24.89
2018-05-06T13:10:10.873Z,24.92
2018-05-06T13:11:19.790Z,24.85
2018-05-06T13:12:28.441Z,24.85
2018-05-06T13:13:37.089Z,24.78
2018-05-06T13:14:45.752Z,24.75
2018-05-06T13:15:54.408Z,24.71
2018-05-06T13:17:03.325Z,24.74
2018-05-06T13:18:12.502Z,24.75
2018-05-06T13:19:21.157Z,24.68
2018-05-06T13:20:29.809Z,24.77
2018-05-06T13:21:38.464Z,24.92
2018-05-06T13:22:47.121Z,24.82
2018-05-06T13:23:55.774Z,24.88
2018-05-06T13:25:04.423Z,24.85
2018-05-06T13:26:13.078Z,24.84
2018-05-06T13:27:21.734Z,24.81
2018-05-06T13:28:30.389Z,24.81
2018-05-06T13:29:39.032Z,24.75
2018-05-06T13:30:47.683Z,24.84
2018-05-06T13:31:56.606Z,24.89
2018-05-06T13:33:05.253Z,24.85
2018-05-06T13:34:14.170Z,25
2018-05-06T13:35:22.824Z,24.93
2018-05-06T13:36:31.751Z,24.99
2018-05-06T13:37:40.403Z,25.09
2018-05-06T13:38:49.055Z,25.12
2018-05-06T13:39:57.710Z,25.09
2018-05-06T13:41:06.631Z,25.22
2018-05-06T13:42:15.555Z,25.15
2018-05-06T13:43:24.209Z,25.31
2018-05-06T13:44:32.860Z,25.3
2018-05-06T13:45:41.785Z,25.24
2018-05-06T13:46:50.442Z,25.18
2018-05-06T13:47:59.095Z,25.24
2018-05-06T13:49:07.749Z,25.21
2018-05-06T13:50:16.486Z,25.21
2018-05-06T13:51:25.411Z,25.11
2018-05-06T13:52:34.066Z,25.11
2018-05-06T13:53:42.985Z,25.11
2018-05-06T13:54:51.634Z,25.06
2018-05-06T13:56:00.293Z,25.07
2018-05-06T13:57:08.945Z,25.04
2018-05-06T13:58:18.137Z,25.03
2018-05-06T13:59:27.056Z,25.06
2018-05-06T14:00:35.705Z,25.01
2018-05-06T14:01:44.359Z,25.04
2018-05-06T14:02:53.012Z,25.01
2018-05-06T14:04:01.670Z,25.04
2018-05-06T14:05:10.316Z,25.04
2018-05-06T14:06:18.972Z,25.04
2018-05-06T14:07:27.622Z,24.99
2018-05-06T14:08:36.291Z,24.96
2018-05-06T14:09:44.933Z,25.03
2018-05-06T14:10:53.591Z,25.04
2018-05-06T14:12:02.243Z,25.04
2018-05-06T14:13:10.904Z,25.14
2018-05-06T14:14:19.561Z,25.04
2018-05-06T14:15:28.469Z,25.07
2018-05-06T14:16:37.120Z,25.09
2018-05-06T14:17:45.770Z,25.04
2018-05-06T14:18:54.432Z,25.09
2018-05-06T14:20:03.079Z,24.99
2018-05-06T14:21:11.743Z,24.93
2018-05-06T14:22:20.383Z,25.03
2018-05-06T14:23:29.050Z,25.01
2018-05-06T14:24:37.696Z,25.04
2018-05-06T14:25:46.352Z,24.96
2018-05-06T14:26:54.997Z,25
2018-05-06T14:28:03.658Z,24.96
2018-05-06T14:29:12.310Z,24.99
2018-05-06T14:30:20.968Z,24.94
2018-05-06T14:31:29.614Z,24.82
2018-05-06T14:32:38.276Z,24.84
2018-05-06T14:33:46.931Z,24.94
2018-05-06T14:34:55.586Z,24.78
2018-05-06T14:36:04.242Z,24.82
2018-05-06T14:37:12.886Z,24.82
2018-05-06T14:38:21.544Z,24.77
2018-05-06T14:39:30.619Z,24.74
2018-05-06T14:40:39.207Z,24.77
2018-05-06T14:41:47.852Z,24.77
2018-05-06T14:42:56.510Z,24.75
2018-05-06T14:44:05.159Z,24.77
2018-05-06T14:45:13.821Z,24.82
2018-05-06T14:46:22.463Z,24.77
2018-05-06T14:47:31.381Z,24.74
2018-05-06T14:48:40.034Z,24.66
2018-05-06T14:49:48.697Z,24.74
2018-05-06T14:50:57.347Z,24.71
2018-05-06T14:52:05.998Z,24.74
2018-05-06T14:53:14.649Z,24.63
2018-05-06T14:54:23.299Z,24.68
2018-05-06T14:55:32.227Z,24.68
2018-05-06T14:56:40.876Z,24.66